Terminal Aerodrome Forecast
Issued by NWS

Home | Current Version | Previous Version | Text Only | Print | Product List | Glossary On
Versions: 1 2 3 4 5 6 7 8 9 10 11 12 13 14 15 16 17 18 19
000
FTUS46 KEKA 041851 AAA
TAFUKI
TAF AMD
KUKI 041851Z 0419/0518 17003KT P6SM FEW018 OVC120
     FM042000 24008KT P6SM VCSH SCT010 SCT100
     FM050000 30009KT P6SM SCT250
     FM050300 05004KT P6SM SKC
     FM051100 16003KT P6SM SCT015=

USA.gov is the U.S. government's official web portal to all federal, state and local government web resources and services.